Mendota Heights, MN (55120)

6:04 PM CDT on July 29, 2015 (GMT -0500)
Highview Park Area | | Change Station
CLOSE
Current Station
Personal Weather Station
Location: Eagan, MN
Elevation: 906 ft
Nearby Weather Stations

Elev 906 ft 44.85 °N, 93.17 °W | Updated 4 minutes ago

Partly Cloudy
Partly Cloudy
81.5 °F
Feels Like 81 °F
N
4.5
Wind Variable Wind from WNW
Gusts 12.1 mph

Today
High -- | Low -- °F
--% Chance of Precip.
Yesterday
High -- | Low -- °F
Precip. -- in
5:54 AM 8:42 PM
Waxing Gibbous, 97% visible
Pressure 29.93 in
Visibility 10.0 miles
Clouds Few 7000 ft
Heat Index 81 °F
Dew Point 58 °F
Humidity 44%
Rainfall 0.00 in
Snow Depth Not available.
UV 3 out of 12
Pollen 8.00 out of 12
Air Quality Not available.
Flu Activity Not available.
METAR KMSP 292253Z 26020G31KT 10SM FEW070 28/12 A2994 RMK AO2 PK WND 27032/2154 SLP133 T02780117

More Conditions Fewer Conditions

Pressure 29.93 in
Visibility 10.0 miles
Clouds Few 7000 ft
Heat Index 81 °F
Dew Point 58 °F
Humidity 44%
Rainfall 0.00 in
Snow Depth Not available.
UV 3 out of 12
Pollen 8.00 out of 12
Air Quality Not available.
Flu Activity Not available.
METAR KMSP 292253Z 26020G31KT 10SM FEW070 28/12 A2994 RMK AO2 PK WND 27032/2154 SLP133 T02780117

More Conditions Fewer Conditions

10-Day Weather Forecast

×

Almanac

Astronomy

Jul. 29, 2015 Rise Set
Actual Time
Civil Twilight
Nautical Twilight
Astronomical Twilight
Moon
Length of Visible Light
Length of Day
Tomorrow will be .
, % of the Moon is Illuminated

Today's Extremes

State Highs State Lows

Community

WunderPhotos

Upload Photos

1,842,182 photos uploaded!

WunderBlogs® & News

Nearby

Air Quality

  Air Quality AQ Index Pollutant
Not available.

Snow Depth

Station Depth Elevation

Earthquake Activity

City Distance Mag. Time & Date
Minimum magnitude displayed is 2.5.

Coastal Water Temperatures

Place Temperature

Stations

Nearby Weather Stations

Station Location Temp. Windchill Dew Point Humidity Wind Precip. Elev Updated Type